This is the latest recevied weather packets stored in our database for station/object KJ4W. If no packets are shown the sender has not sent any weather packets the latest 10 day(s).
| Time | Temp. | Humidity | Pressure | Rain* | Wind** | Luminosity | Snow |
|---|---|---|---|---|---|---|---|
| 1777904928 | 21.11° C | 62% | 1012.6 hPa | 0 mm | - | - | - |
| 1777904027 | 20.56° C | 66% | 1012.6 hPa | 0 mm | - | - | - |
| 1777903127 | 19.44° C | 65% | 1012.5 hPa | 0 mm | - | - | - |
| 1777902226 | 18.89° C | 67% | 1012.6 hPa | 0 mm | - | - | - |
| 1777901328 | 18.33° C | 67% | 1012.7 hPa | 0 mm | - | - | - |
| 1777900427 | 17.78° C | 69% | 1012.6 hPa | 0 mm | - | - | - |
| 1777899527 | 17.22° C | 70% | 1012.4 hPa | 0 mm | - | - | - |
| 1777898627 | 16.67° C | 71% | 1012.4 hPa | 0 mm | - | - | - |
| 1777897727 | 16.11° C | 71% | 1012.4 hPa | 0 mm | - | - | - |
| 1777896826 | 15.56° C | 71% | 1012.4 hPa | 0 mm | - | - | - |
| 1777895926 | 15.56° C | 71% | 1012.3 hPa | 0 mm | - | - | - |
| 1777895027 | 15° C | 71% | 1012.2 hPa | 0 mm | - | - | - |
| 1777894125 | 15° C | 70% | 1012.2 hPa | 0 mm | - | - | - |
| 1777893227 | 15° C | 70% | 1012.1 hPa | 0 mm | - | - | - |
| 1777892327 | 15° C | 68% | 1012 hPa | 0 mm | - | - | - |
| 1777891426 | 15° C | 68% | 1012 hPa | 0 mm | - | - | - |
| 1777890526 | 15° C | 67% | 1012 hPa | 0 mm | - | - | - |
| 1777889627 | 15° C | 66% | 1012.1 hPa | 0 mm | - | - | - |
| 1777888727 | 15.56° C | 65% | 1012.1 hPa | 0 mm | - | - | - |
| 1777887826 | 15.56° C | 64% | 1012.1 hPa | 0 mm | - | - | - |
| 1777886926 | 15.56° C | 62% | 1012 hPa | 0 mm | - | - | - |
| 1777886027 | 15.56° C | 62% | 1012.1 hPa | 0 mm | - | - | - |
| 1777885127 | 15.56° C | 62% | 1011.9 hPa | 0 mm | - | - | - |
| 1777884226 | 16.11° C | 60% | 1012 hPa | 0 mm | - | - | - |
| 1777883326 | 16.11° C | 60% | 1012 hPa | 0 mm | - | - | - |
* Rain latest hour (hover to see other rain measurements)
** Current wind speed in m/s (hover to see current wind gust speed)